sensor_id;sensor_type;location;lat;lon;timestamp;P1;durP1;ratioP1;P2;durP2;ratioP2
36259;SDS011;22296;50.824;5.644;2023-02-28T00:00:31;2.13;;;1.85;;
36259;SDS011;22296;50.824;5.644;2023-02-28T00:02:59;2.83;;;2.30;;
36259;SDS011;22296;50.824;5.644;2023-02-28T00:05:27;2.15;;;1.95;;
36259;SDS011;22296;50.824;5.644;2023-02-28T00:07:54;3.50;;;2.33;;
36259;SDS011;22296;50.824;5.644;2023-02-28T00:10:23;2.28;;;2.00;;
36259;SDS011;22296;50.824;5.644;2023-02-28T00:12:53;2.63;;;1.98;;
36259;SDS011;22296;50.824;5.644;2023-02-28T00:15:23;2.55;;;2.10;;
36259;SDS011;22296;50.824;5.644;2023-02-28T00:17:50;3.53;;;1.83;;
36259;SDS011;22296;50.824;5.644;2023-02-28T00:20:17;3.67;;;2.55;;
36259;SDS011;22296;50.824;5.644;2023-02-28T00:22:46;2.97;;;2.05;;
36259;SDS011;22296;50.824;5.644;2023-02-28T00:27:42;1.98;;;1.60;;
36259;SDS011;22296;50.824;5.644;2023-02-28T00:30:12;2.67;;;2.00;;
36259;SDS011;22296;50.824;5.644;2023-02-28T00:32:41;3.30;;;2.30;;
36259;SDS011;22296;50.824;5.644;2023-02-28T00:35:09;2.05;;;1.85;;
36259;SDS011;22296;50.824;5.644;2023-02-28T00:37:37;2.95;;;2.00;;
36259;SDS011;22296;50.824;5.644;2023-02-28T00:40:04;2.90;;;2.03;;
36259;SDS011;22296;50.824;5.644;2023-02-28T00:42:33;2.72;;;2.08;;
36259;SDS011;22296;50.824;5.644;2023-02-28T00:45:01;2.47;;;2.08;;
36259;SDS011;22296;50.824;5.644;2023-02-28T00:47:31;2.60;;;2.05;;
36259;SDS011;22296;50.824;5.644;2023-02-28T00:49:58;2.30;;;1.98;;
36259;SDS011;22296;50.824;5.644;2023-02-28T00:52:27;2.22;;;2.03;;
36259;SDS011;22296;50.824;5.644;2023-02-28T00:54:54;2.30;;;1.83;;
36259;SDS011;22296;50.824;5.644;2023-02-28T00:57:21;2.30;;;1.80;;
36259;SDS011;22296;50.824;5.644;2023-02-28T00:59:48;2.95;;;1.98;;
36259;SDS011;22296;50.824;5.644;2023-02-28T01:02:14;2.50;;;2.05;;
36259;SDS011;22296;50.824;5.644;2023-02-28T01:04:41;2.10;;;1.73;;
36259;SDS011;22296;50.824;5.644;2023-02-28T01:07:08;2.17;;;1.83;;
36259;SDS011;22296;50.824;5.644;2023-02-28T01:09:35;2.10;;;1.88;;
36259;SDS011;22296;50.824;5.644;2023-02-28T01:12:01;2.47;;;1.95;;
36259;SDS011;22296;50.824;5.644;2023-02-28T01:14:28;2.50;;;1.90;;
36259;SDS011;22296;50.824;5.644;2023-02-28T01:16:55;2.40;;;1.88;;
36259;SDS011;22296;50.824;5.644;2023-02-28T01:19:24;3.55;;;1.88;;
36259;SDS011;22296;50.824;5.644;2023-02-28T01:21:50;3.03;;;2.00;;
36259;SDS011;22296;50.824;5.644;2023-02-28T01:24:17;3.00;;;2.13;;
36259;SDS011;22296;50.824;5.644;2023-02-28T01:26:44;3.00;;;2.05;;
36259;SDS011;22296;50.824;5.644;2023-02-28T01:29:11;5.18;;;1.77;;
36259;SDS011;22296;50.824;5.644;2023-02-28T01:31:38;2.30;;;1.80;;
36259;SDS011;22296;50.824;5.644;2023-02-28T01:34:07;3.10;;;2.22;;
36259;SDS011;22296;50.824;5.644;2023-02-28T01:36:33;2.15;;;1.90;;
36259;SDS011;22296;50.824;5.644;2023-02-28T01:39:00;2.55;;;2.10;;
36259;SDS011;22296;50.824;5.644;2023-02-28T01:41:28;2.45;;;1.80;;
36259;SDS011;22296;50.824;5.644;2023-02-28T01:44:03;2.42;;;2.00;;
36259;SDS011;22296;50.824;5.644;2023-02-28T01:46:34;4.20;;;2.08;;
36259;SDS011;22296;50.824;5.644;2023-02-28T01:49:12;3.80;;;2.10;;
36259;SDS011;22296;50.824;5.644;2023-02-28T01:51:42;2.65;;;1.98;;
36259;SDS011;22296;50.824;5.644;2023-02-28T01:54:21;5.03;;;1.80;;
36259;SDS011;22296;50.824;5.644;2023-02-28T01:56:55;1.83;;;1.70;;
36259;SDS011;22296;50.824;5.644;2023-02-28T01:59:29;2.03;;;1.55;;
36259;SDS011;22296;50.824;5.644;2023-02-28T02:02:06;3.40;;;1.90;;
36259;SDS011;22296;50.824;5.644;2023-02-28T02:07:29;2.13;;;1.90;;
36259;SDS011;22296;50.824;5.644;2023-02-28T02:10:06;3.22;;;1.95;;
36259;SDS011;22296;50.824;5.644;2023-02-28T02:15:23;3.28;;;2.10;;
36259;SDS011;22296;50.824;5.644;2023-02-28T02:18:27;1.85;;;1.75;;
36259;SDS011;22296;50.824;5.644;2023-02-28T02:27:16;2.25;;;1.77;;
36259;SDS011;22296;50.824;5.644;2023-02-28T02:38:10;3.83;;;1.90;;
36259;SDS011;22296;50.824;5.644;2023-02-28T02:43:56;2.83;;;2.00;;
36259;SDS011;22296;50.824;5.644;2023-02-28T02:46:34;2.78;;;2.30;;
36259;SDS011;22296;50.824;5.644;2023-02-28T02:49:08;2.45;;;1.70;;
36259;SDS011;22296;50.824;5.644;2023-02-28T02:51:41;2.58;;;1.75;;
36259;SDS011;22296;50.824;5.644;2023-02-28T02:54:15;3.10;;;2.42;;
36259;SDS011;22296;50.824;5.644;2023-02-28T02:56:46;3.05;;;2.03;;
36259;SDS011;22296;50.824;5.644;2023-02-28T02:59:16;2.22;;;1.80;;
36259;SDS011;22296;50.824;5.644;2023-02-28T03:01:57;4.07;;;1.88;;
36259;SDS011;22296;50.824;5.644;2023-02-28T03:04:29;2.92;;;2.03;;
36259;SDS011;22296;50.824;5.644;2023-02-28T03:06:59;2.30;;;1.83;;
36259;SDS011;22296;50.824;5.644;2023-02-28T03:09:27;2.30;;;1.90;;
36259;SDS011;22296;50.824;5.644;2023-02-28T03:11:54;2.33;;;1.80;;
36259;SDS011;22296;50.824;5.644;2023-02-28T03:25:08;2.22;;;1.83;;
36259;SDS011;22296;50.824;5.644;2023-02-28T03:30:53;2.70;;;1.70;;
36259;SDS011;22296;50.824;5.644;2023-02-28T03:33:32;1.80;;;1.60;;
36259;SDS011;22296;50.824;5.644;2023-02-28T03:36:07;2.50;;;1.70;;
36259;SDS011;22296;50.824;5.644;2023-02-28T03:38:44;2.38;;;1.77;;
36259;SDS011;22296;50.824;5.644;2023-02-28T03:41:31;2.15;;;1.70;;
36259;SDS011;22296;50.824;5.644;2023-02-28T03:44:21;2.85;;;1.90;;
36259;SDS011;22296;50.824;5.644;2023-02-28T03:47:02;2.70;;;1.83;;
36259;SDS011;22296;50.824;5.644;2023-02-28T03:49:40;2.50;;;1.80;;
36259;SDS011;22296;50.824;5.644;2023-02-28T03:52:14;2.28;;;1.92;;
36259;SDS011;22296;50.824;5.644;2023-02-28T03:54:41;2.17;;;1.80;;
36259;SDS011;22296;50.824;5.644;2023-02-28T03:57:20;2.40;;;1.90;;
36259;SDS011;22296;50.824;5.644;2023-02-28T04:00:07;2.50;;;2.13;;
36259;SDS011;22296;50.824;5.644;2023-02-28T04:02:38;3.55;;;2.13;;
36259;SDS011;22296;50.824;5.644;2023-02-28T04:05:06;2.30;;;1.70;;
36259;SDS011;22296;50.824;5.644;2023-02-28T04:07:33;2.58;;;1.98;;
36259;SDS011;22296;50.824;5.644;2023-02-28T04:10:00;2.28;;;1.98;;
36259;SDS011;22296;50.824;5.644;2023-02-28T04:12:27;2.30;;;1.98;;
36259;SDS011;22296;50.824;5.644;2023-02-28T04:14:54;3.47;;;1.92;;
36259;SDS011;22296;50.824;5.644;2023-02-28T04:17:21;2.28;;;1.80;;
36259;SDS011;22296;50.824;5.644;2023-02-28T04:19:48;2.70;;;2.00;;
36259;SDS011;22296;50.824;5.644;2023-02-28T04:22:16;3.03;;;1.98;;
36259;SDS011;22296;50.824;5.644;2023-02-28T04:24:44;2.47;;;1.88;;
36259;SDS011;22296;50.824;5.644;2023-02-28T04:27:11;2.55;;;2.00;;
36259;SDS011;22296;50.824;5.644;2023-02-28T04:29:38;2.85;;;2.00;;
36259;SDS011;22296;50.824;5.644;2023-02-28T04:32:04;2.08;;;1.88;;
36259;SDS011;22296;50.824;5.644;2023-02-28T04:34:31;3.55;;;2.05;;
36259;SDS011;22296;50.824;5.644;2023-02-28T04:36:59;2.75;;;2.00;;
36259;SDS011;22296;50.824;5.644;2023-02-28T04:39:42;3.08;;;1.98;;
36259;SDS011;22296;50.824;5.644;2023-02-28T04:42:10;2.78;;;1.70;;
36259;SDS011;22296;50.824;5.644;2023-02-28T04:44:37;3.03;;;1.70;;
36259;SDS011;22296;50.824;5.644;2023-02-28T04:47:04;2.35;;;1.83;;
36259;SDS011;22296;50.824;5.644;2023-02-28T04:49:31;2.47;;;1.90;;
36259;SDS011;22296;50.824;5.644;2023-02-28T04:51:58;2.58;;;1.90;;
36259;SDS011;22296;50.824;5.644;2023-02-28T04:54:25;1.80;;;1.55;;
36259;SDS011;22296;50.824;5.644;2023-02-28T04:56:52;1.85;;;1.70;;
36259;SDS011;22296;50.824;5.644;2023-02-28T04:59:19;2.92;;;1.80;;
36259;SDS011;22296;50.824;5.644;2023-02-28T05:01:46;2.05;;;1.60;;
36259;SDS011;22296;50.824;5.644;2023-02-28T05:04:14;2.88;;;1.98;;
36259;SDS011;22296;50.824;5.644;2023-02-28T05:06:41;1.92;;;1.80;;
36259;SDS011;22296;50.824;5.644;2023-02-28T05:09:09;3.92;;;2.20;;
36259;SDS011;22296;50.824;5.644;2023-02-28T05:11:38;2.67;;;1.90;;
36259;SDS011;22296;50.824;5.644;2023-02-28T05:14:06;5.20;;;2.47;;
36259;SDS011;22296;50.824;5.644;2023-02-28T05:16:37;3.85;;;2.20;;
36259;SDS011;22296;50.824;5.644;2023-02-28T05:19:04;3.33;;;2.40;;
36259;SDS011;22296;50.824;5.644;2023-02-28T05:21:40;4.25;;;2.40;;
36259;SDS011;22296;50.824;5.644;2023-02-28T05:24:14;3.10;;;2.65;;
36259;SDS011;22296;50.824;5.644;2023-02-28T05:26:42;3.35;;;2.58;;
36259;SDS011;22296;50.824;5.644;2023-02-28T05:29:09;2.90;;;1.90;;
36259;SDS011;22296;50.824;5.644;2023-02-28T05:31:36;3.30;;;2.20;;
36259;SDS011;22296;50.824;5.644;2023-02-28T05:34:03;2.83;;;2.50;;
36259;SDS011;22296;50.824;5.644;2023-02-28T05:36:32;3.38;;;2.28;;
36259;SDS011;22296;50.824;5.644;2023-02-28T05:38:59;2.78;;;2.47;;
36259;SDS011;22296;50.824;5.644;2023-02-28T05:41:26;2.63;;;2.22;;
36259;SDS011;22296;50.824;5.644;2023-02-28T05:43:54;4.43;;;2.65;;
36259;SDS011;22296;50.824;5.644;2023-02-28T05:46:21;2.92;;;2.03;;
36259;SDS011;22296;50.824;5.644;2023-02-28T05:48:47;2.55;;;2.13;;
36259;SDS011;22296;50.824;5.644;2023-02-28T05:51:15;2.42;;;2.10;;
36259;SDS011;22296;50.824;5.644;2023-02-28T05:53:42;4.28;;;2.53;;
36259;SDS011;22296;50.824;5.644;2023-02-28T05:56:09;2.13;;;1.88;;
36259;SDS011;22296;50.824;5.644;2023-02-28T05:58:36;2.67;;;2.33;;
36259;SDS011;22296;50.824;5.644;2023-02-28T06:04:11;2.97;;;2.17;;
36259;SDS011;22296;50.824;5.644;2023-02-28T06:06:56;3.40;;;2.30;;
36259;SDS011;22296;50.824;5.644;2023-02-28T06:09:23;3.58;;;2.03;;
36259;SDS011;22296;50.824;5.644;2023-02-28T06:11:51;3.33;;;2.47;;
36259;SDS011;22296;50.824;5.644;2023-02-28T06:14:18;3.63;;;2.30;;
36259;SDS011;22296;50.824;5.644;2023-02-28T06:16:46;2.77;;;2.40;;
36259;SDS011;22296;50.824;5.644;2023-02-28T06:19:14;2.50;;;2.00;;
36259;SDS011;22296;50.824;5.644;2023-02-28T06:21:41;5.63;;;2.30;;
36259;SDS011;22296;50.824;5.644;2023-02-28T06:24:08;2.58;;;2.25;;
36259;SDS011;22296;50.824;5.644;2023-02-28T06:26:35;4.10;;;2.78;;
36259;SDS011;22296;50.824;5.644;2023-02-28T06:29:02;3.42;;;2.35;;
36259;SDS011;22296;50.824;5.644;2023-02-28T06:31:29;3.05;;;2.22;;
36259;SDS011;22296;50.824;5.644;2023-02-28T06:33:56;3.88;;;1.95;;
36259;SDS011;22296;50.824;5.644;2023-02-28T06:36:23;2.75;;;2.10;;
36259;SDS011;22296;50.824;5.644;2023-02-28T06:38:50;3.90;;;2.55;;
36259;SDS011;22296;50.824;5.644;2023-02-28T06:41:25;2.88;;;2.33;;
36259;SDS011;22296;50.824;5.644;2023-02-28T06:43:53;2.80;;;1.95;;
36259;SDS011;22296;50.824;5.644;2023-02-28T06:46:20;3.45;;;2.05;;
36259;SDS011;22296;50.824;5.644;2023-02-28T06:49:00;3.00;;;2.10;;
36259;SDS011;22296;50.824;5.644;2023-02-28T06:51:27;4.70;;;2.22;;
36259;SDS011;22296;50.824;5.644;2023-02-28T06:53:54;3.47;;;2.30;;
36259;SDS011;22296;50.824;5.644;2023-02-28T06:56:21;2.70;;;2.20;;
36259;SDS011;22296;50.824;5.644;2023-02-28T06:58:48;3.30;;;2.30;;
36259;SDS011;22296;50.824;5.644;2023-02-28T07:01:16;3.50;;;2.50;;
36259;SDS011;22296;50.824;5.644;2023-02-28T07:03:43;3.53;;;2.30;;
36259;SDS011;22296;50.824;5.644;2023-02-28T07:06:11;4.75;;;2.20;;
36259;SDS011;22296;50.824;5.644;2023-02-28T07:08:37;3.15;;;2.28;;
36259;SDS011;22296;50.824;5.644;2023-02-28T07:11:06;3.50;;;2.50;;
36259;SDS011;22296;50.824;5.644;2023-02-28T07:13:33;2.83;;;2.22;;
36259;SDS011;22296;50.824;5.644;2023-02-28T07:16:00;4.75;;;2.50;;
36259;SDS011;22296;50.824;5.644;2023-02-28T07:18:29;3.58;;;2.35;;
36259;SDS011;22296;50.824;5.644;2023-02-28T07:20:57;2.40;;;2.20;;
36259;SDS011;22296;50.824;5.644;2023-02-28T07:23:24;2.72;;;2.33;;
36259;SDS011;22296;50.824;5.644;2023-02-28T07:25:50;3.67;;;2.15;;
36259;SDS011;22296;50.824;5.644;2023-02-28T07:28:18;3.42;;;2.25;;
36259;SDS011;22296;50.824;5.644;2023-02-28T07:30:45;3.65;;;2.33;;
36259;SDS011;22296;50.824;5.644;2023-02-28T07:33:12;3.22;;;2.35;;
36259;SDS011;22296;50.824;5.644;2023-02-28T07:35:38;4.18;;;2.60;;
36259;SDS011;22296;50.824;5.644;2023-02-28T07:38:05;4.05;;;2.13;;
36259;SDS011;22296;50.824;5.644;2023-02-28T07:40:34;3.28;;;2.22;;
36259;SDS011;22296;50.824;5.644;2023-02-28T07:43:02;3.35;;;2.25;;
36259;SDS011;22296;50.824;5.644;2023-02-28T07:45:29;4.53;;;2.30;;
36259;SDS011;22296;50.824;5.644;2023-02-28T07:47:58;4.43;;;2.78;;
36259;SDS011;22296;50.824;5.644;2023-02-28T07:50:25;5.43;;;2.60;;
36259;SDS011;22296;50.824;5.644;2023-02-28T07:52:55;3.45;;;2.50;;
36259;SDS011;22296;50.824;5.644;2023-02-28T07:55:22;4.63;;;2.33;;
36259;SDS011;22296;50.824;5.644;2023-02-28T07:57:49;3.40;;;2.35;;
36259;SDS011;22296;50.824;5.644;2023-02-28T08:00:16;3.42;;;2.13;;
36259;SDS011;22296;50.824;5.644;2023-02-28T08:02:43;3.17;;;2.40;;
36259;SDS011;22296;50.824;5.644;2023-02-28T08:05:09;3.22;;;2.17;;
36259;SDS011;22296;50.824;5.644;2023-02-28T08:07:36;3.65;;;2.30;;
36259;SDS011;22296;50.824;5.644;2023-02-28T08:10:03;4.18;;;2.50;;
36259;SDS011;22296;50.824;5.644;2023-02-28T08:12:31;4.38;;;2.40;;
36259;SDS011;22296;50.824;5.644;2023-02-28T08:14:59;3.42;;;2.38;;
36259;SDS011;22296;50.824;5.644;2023-02-28T08:17:26;3.55;;;2.13;;
36259;SDS011;22296;50.824;5.644;2023-02-28T08:19:53;3.58;;;2.50;;
36259;SDS011;22296;50.824;5.644;2023-02-28T08:22:20;5.18;;;2.60;;
36259;SDS011;22296;50.824;5.644;2023-02-28T08:24:46;2.70;;;2.20;;
36259;SDS011;22296;50.824;5.644;2023-02-28T08:27:13;3.58;;;2.42;;
36259;SDS011;22296;50.824;5.644;2023-02-28T08:29:40;3.53;;;2.22;;
36259;SDS011;22296;50.824;5.644;2023-02-28T08:32:07;3.40;;;2.38;;
36259;SDS011;22296;50.824;5.644;2023-02-28T08:34:48;3.22;;;2.20;;
36259;SDS011;22296;50.824;5.644;2023-02-28T08:37:15;4.38;;;2.20;;
36259;SDS011;22296;50.824;5.644;2023-02-28T08:39:42;4.03;;;2.60;;
36259;SDS011;22296;50.824;5.644;2023-02-28T08:42:09;2.63;;;2.17;;
36259;SDS011;22296;50.824;5.644;2023-02-28T08:44:35;3.50;;;2.35;;
36259;SDS011;22296;50.824;5.644;2023-02-28T08:47:02;4.07;;;2.38;;
36259;SDS011;22296;50.824;5.644;2023-02-28T08:49:29;2.83;;;2.30;;
36259;SDS011;22296;50.824;5.644;2023-02-28T08:51:56;2.92;;;2.20;;
36259;SDS011;22296;50.824;5.644;2023-02-28T08:54:23;4.20;;;2.10;;
36259;SDS011;22296;50.824;5.644;2023-02-28T08:56:51;2.28;;;1.90;;
36259;SDS011;22296;50.824;5.644;2023-02-28T08:59:18;3.22;;;2.05;;
36259;SDS011;22296;50.824;5.644;2023-02-28T09:01:45;3.10;;;2.13;;
36259;SDS011;22296;50.824;5.644;2023-02-28T09:04:11;3.13;;;2.20;;
36259;SDS011;22296;50.824;5.644;2023-02-28T09:06:42;2.63;;;2.10;;
36259;SDS011;22296;50.824;5.644;2023-02-28T09:09:10;4.25;;;2.15;;
36259;SDS011;22296;50.824;5.644;2023-02-28T09:11:37;3.13;;;2.35;;
36259;SDS011;22296;50.824;5.644;2023-02-28T09:14:04;3.30;;;1.90;;
36259;SDS011;22296;50.824;5.644;2023-02-28T09:16:31;2.38;;;2.00;;
36259;SDS011;22296;50.824;5.644;2023-02-28T09:19:00;3.93;;;2.30;;
36259;SDS011;22296;50.824;5.644;2023-02-28T09:21:27;2.08;;;1.80;;
36259;SDS011;22296;50.824;5.644;2023-02-28T09:23:55;3.10;;;2.10;;
36259;SDS011;22296;50.824;5.644;2023-02-28T09:26:23;2.70;;;1.83;;
36259;SDS011;22296;50.824;5.644;2023-02-28T09:28:57;3.20;;;2.13;;
36259;SDS011;22296;50.824;5.644;2023-02-28T09:31:26;2.40;;;1.65;;
36259;SDS011;22296;50.824;5.644;2023-02-28T09:33:55;2.85;;;2.10;;
36259;SDS011;22296;50.824;5.644;2023-02-28T09:36:24;3.00;;;2.17;;
36259;SDS011;22296;50.824;5.644;2023-02-28T09:39:08;2.28;;;1.75;;
36259;SDS011;22296;50.824;5.644;2023-02-28T09:41:40;2.72;;;1.90;;
36259;SDS011;22296;50.824;5.644;2023-02-28T09:47:10;2.55;;;1.85;;
36259;SDS011;22296;50.824;5.644;2023-02-28T09:49:42;2.83;;;1.80;;
36259;SDS011;22296;50.824;5.644;2023-02-28T09:52:17;3.25;;;1.80;;
36259;SDS011;22296;50.824;5.644;2023-02-28T09:54:45;2.88;;;1.70;;
36259;SDS011;22296;50.824;5.644;2023-02-28T10:05:26;3.05;;;1.60;;
36259;SDS011;22296;50.824;5.644;2023-02-28T10:10:36;2.30;;;1.70;;
36259;SDS011;22296;50.824;5.644;2023-02-28T10:13:06;2.67;;;2.00;;
36259;SDS011;22296;50.824;5.644;2023-02-28T10:15:42;2.90;;;1.80;;
36259;SDS011;22296;50.824;5.644;2023-02-28T10:18:12;2.20;;;1.90;;
36259;SDS011;22296;50.824;5.644;2023-02-28T10:20:45;2.40;;;1.70;;
36259;SDS011;22296;50.824;5.644;2023-02-28T10:25:57;3.08;;;1.63;;
36259;SDS011;22296;50.824;5.644;2023-02-28T10:28:28;2.35;;;1.85;;
36259;SDS011;22296;50.824;5.644;2023-02-28T10:30:57;2.17;;;1.65;;
36259;SDS011;22296;50.824;5.644;2023-02-28T10:33:32;2.17;;;1.70;;
36259;SDS011;22296;50.824;5.644;2023-02-28T10:36:00;2.35;;;1.52;;
36259;SDS011;22296;50.824;5.644;2023-02-28T10:38:32;1.98;;;1.50;;
36259;SDS011;22296;50.824;5.644;2023-02-28T10:41:12;2.60;;;1.60;;
36259;SDS011;22296;50.824;5.644;2023-02-28T10:43:41;3.45;;;2.03;;
36259;SDS011;22296;50.824;5.644;2023-02-28T10:46:12;2.83;;;2.05;;
36259;SDS011;22296;50.824;5.644;2023-02-28T10:49:05;2.42;;;1.80;;
36259;SDS011;22296;50.824;5.644;2023-02-28T10:51:40;2.47;;;1.80;;
36259;SDS011;22296;50.824;5.644;2023-02-28T10:54:18;2.22;;;1.77;;
36259;SDS011;22296;50.824;5.644;2023-02-28T10:59:41;2.83;;;1.60;;
36259;SDS011;22296;50.824;5.644;2023-02-28T11:05:00;2.47;;;1.92;;
36259;SDS011;22296;50.824;5.644;2023-02-28T11:07:27;2.42;;;1.65;;
36259;SDS011;22296;50.824;5.644;2023-02-28T11:10:26;2.35;;;1.40;;
36259;SDS011;22296;50.824;5.644;2023-02-28T11:12:56;2.00;;;1.80;;
36259;SDS011;22296;50.824;5.644;2023-02-28T11:15:27;2.28;;;1.63;;
36259;SDS011;22296;50.824;5.644;2023-02-28T11:17:57;1.95;;;1.60;;
36259;SDS011;22296;50.824;5.644;2023-02-28T11:20:31;2.40;;;1.50;;
36259;SDS011;22296;50.824;5.644;2023-02-28T11:23:00;2.05;;;1.67;;
36259;SDS011;22296;50.824;5.644;2023-02-28T11:28:01;1.95;;;1.33;;
36259;SDS011;22296;50.824;5.644;2023-02-28T11:36:04;1.90;;;1.60;;
36259;SDS011;22296;50.824;5.644;2023-02-28T11:38:36;1.90;;;1.40;;
36259;SDS011;22296;50.824;5.644;2023-02-28T11:49:42;1.85;;;1.35;;
36259;SDS011;22296;50.824;5.644;2023-02-28T11:54:58;3.55;;;1.52;;
36259;SDS011;22296;50.824;5.644;2023-02-28T11:57:33;1.40;;;1.30;;
36259;SDS011;22296;50.824;5.644;2023-02-28T12:10:33;2.35;;;1.30;;
36259;SDS011;22296;50.824;5.644;2023-02-28T12:13:18;2.08;;;1.50;;
36259;SDS011;22296;50.824;5.644;2023-02-28T12:16:21;3.13;;;1.40;;
36259;SDS011;22296;50.824;5.644;2023-02-28T12:26:38;1.38;;;1.17;;
36259;SDS011;22296;50.824;5.644;2023-02-28T12:29:19;2.08;;;1.10;;
36259;SDS011;22296;50.824;5.644;2023-02-28T12:31:53;1.90;;;1.30;;
36259;SDS011;22296;50.824;5.644;2023-02-28T12:34:27;1.95;;;1.20;;
36259;SDS011;22296;50.824;5.644;2023-02-28T12:36:58;1.63;;;1.38;;
36259;SDS011;22296;50.824;5.644;2023-02-28T12:39:30;2.17;;;1.20;;
36259;SDS011;22296;50.824;5.644;2023-02-28T12:44:59;1.85;;;1.48;;
36259;SDS011;22296;50.824;5.644;2023-02-28T12:47:29;1.92;;;1.20;;
36259;SDS011;22296;50.824;5.644;2023-02-28T12:49:57;2.85;;;1.63;;
36259;SDS011;22296;50.824;5.644;2023-02-28T12:52:35;1.73;;;1.35;;
36259;SDS011;22296;50.824;5.644;2023-02-28T12:57:59;2.10;;;1.30;;
36259;SDS011;22296;50.824;5.644;2023-02-28T13:09:52;2.17;;;1.55;;
36259;SDS011;22296;50.824;5.644;2023-02-28T13:12:21;1.48;;;1.10;;
36259;SDS011;22296;50.824;5.644;2023-02-28T13:14:49;2.45;;;1.48;;
36259;SDS011;22296;50.824;5.644;2023-02-28T13:17:18;1.45;;;1.10;;
36259;SDS011;22296;50.824;5.644;2023-02-28T13:24:59;1.77;;;1.25;;
36259;SDS011;22296;50.824;5.644;2023-02-28T13:27:34;1.20;;;1.05;;
36259;SDS011;22296;50.824;5.644;2023-02-28T13:33:25;1.65;;;1.20;;
36259;SDS011;22296;50.824;5.644;2023-02-28T13:46:49;2.03;;;1.23;;
36259;SDS011;22296;50.824;5.644;2023-02-28T13:51:52;1.38;;;1.17;;
36259;SDS011;22296;50.824;5.644;2023-02-28T14:05:30;2.17;;;1.58;;
36259;SDS011;22296;50.824;5.644;2023-02-28T14:08:04;2.03;;;1.20;;
36259;SDS011;22296;50.824;5.644;2023-02-28T14:16:14;1.48;;;1.30;;
36259;SDS011;22296;50.824;5.644;2023-02-28T14:21:29;2.42;;;1.05;;
36259;SDS011;22296;50.824;5.644;2023-02-28T14:24:20;1.80;;;1.25;;
36259;SDS011;22296;50.824;5.644;2023-02-28T14:38:23;2.75;;;1.30;;
36259;SDS011;22296;50.824;5.644;2023-02-28T14:40:52;2.20;;;1.55;;
36259;SDS011;22296;50.824;5.644;2023-02-28T14:43:22;2.58;;;1.58;;
36259;SDS011;22296;50.824;5.644;2023-02-28T14:45:53;1.83;;;1.10;;
36259;SDS011;22296;50.824;5.644;2023-02-28T14:48:23;1.92;;;1.30;;
36259;SDS011;22296;50.824;5.644;2023-02-28T14:50:53;2.07;;;1.67;;
36259;SDS011;22296;50.824;5.644;2023-02-28T14:53:23;2.13;;;1.30;;
36259;SDS011;22296;50.824;5.644;2023-02-28T14:55:53;1.17;;;1.08;;
36259;SDS011;22296;50.824;5.644;2023-02-28T14:58:30;3.53;;;1.10;;
36259;SDS011;22296;50.824;5.644;2023-02-28T15:01:00;2.05;;;1.20;;
36259;SDS011;22296;50.824;5.644;2023-02-28T15:05:58;1.63;;;1.30;;
36259;SDS011;22296;50.824;5.644;2023-02-28T15:08:26;1.52;;;1.42;;
36259;SDS011;22296;50.824;5.644;2023-02-28T15:10:57;1.58;;;1.30;;
36259;SDS011;22296;50.824;5.644;2023-02-28T15:13:40;3.95;;;1.45;;
36259;SDS011;22296;50.824;5.644;2023-02-28T15:18:50;1.73;;;1.23;;
36259;SDS011;22296;50.824;5.644;2023-02-28T15:21:21;2.53;;;1.20;;
36259;SDS011;22296;50.824;5.644;2023-02-28T15:23:52;1.75;;;1.55;;
36259;SDS011;22296;50.824;5.644;2023-02-28T15:26:29;1.92;;;1.20;;
36259;SDS011;22296;50.824;5.644;2023-02-28T15:29:00;1.88;;;1.25;;
36259;SDS011;22296;50.824;5.644;2023-02-28T15:31:31;1.85;;;1.20;;
36259;SDS011;22296;50.824;5.644;2023-02-28T15:34:25;1.85;;;1.58;;
36259;SDS011;22296;50.824;5.644;2023-02-28T15:40:11;2.28;;;1.30;;
36259;SDS011;22296;50.824;5.644;2023-02-28T15:42:42;1.63;;;1.25;;
36259;SDS011;22296;50.824;5.644;2023-02-28T15:45:34;1.92;;;1.20;;
36259;SDS011;22296;50.824;5.644;2023-02-28T15:51:07;1.40;;;1.17;;
36259;SDS011;22296;50.824;5.644;2023-02-28T15:53:33;1.77;;;1.52;;
36259;SDS011;22296;50.824;5.644;2023-02-28T15:56:05;2.03;;;1.23;;
36259;SDS011;22296;50.824;5.644;2023-02-28T15:58:48;2.03;;;1.30;;
36259;SDS011;22296;50.824;5.644;2023-02-28T16:01:19;2.13;;;1.23;;
36259;SDS011;22296;50.824;5.644;2023-02-28T16:03:51;1.75;;;1.23;;
36259;SDS011;22296;50.824;5.644;2023-02-28T16:08:52;1.35;;;1.00;;
36259;SDS011;22296;50.824;5.644;2023-02-28T16:11:20;2.33;;;1.38;;
36259;SDS011;22296;50.824;5.644;2023-02-28T16:13:48;3.20;;;1.08;;
36259;SDS011;22296;50.824;5.644;2023-02-28T16:16:20;2.58;;;1.35;;
36259;SDS011;22296;50.824;5.644;2023-02-28T16:18:49;1.60;;;1.20;;
36259;SDS011;22296;50.824;5.644;2023-02-28T16:21:16;1.63;;;1.33;;
36259;SDS011;22296;50.824;5.644;2023-02-28T16:23:43;1.63;;;1.10;;
36259;SDS011;22296;50.824;5.644;2023-02-28T16:26:16;2.08;;;1.30;;
36259;SDS011;22296;50.824;5.644;2023-02-28T16:28:47;1.73;;;1.20;;
36259;SDS011;22296;50.824;5.644;2023-02-28T16:31:14;1.38;;;1.20;;
36259;SDS011;22296;50.824;5.644;2023-02-28T16:33:43;1.88;;;1.45;;
36259;SDS011;22296;50.824;5.644;2023-02-28T16:36:13;2.47;;;1.45;;
36259;SDS011;22296;50.824;5.644;2023-02-28T16:38:43;1.20;;;0.98;;
36259;SDS011;22296;50.824;5.644;2023-02-28T16:41:14;1.17;;;1.08;;
36259;SDS011;22296;50.824;5.644;2023-02-28T16:43:48;1.30;;;1.02;;
36259;SDS011;22296;50.824;5.644;2023-02-28T16:46:17;1.70;;;1.40;;
36259;SDS011;22296;50.824;5.644;2023-02-28T16:48:45;1.35;;;1.10;;
36259;SDS011;22296;50.824;5.644;2023-02-28T16:51:13;1.30;;;0.90;;
36259;SDS011;22296;50.824;5.644;2023-02-28T16:53:41;1.40;;;0.90;;
36259;SDS011;22296;50.824;5.644;2023-02-28T16:56:19;2.97;;;1.77;;
36259;SDS011;22296;50.824;5.644;2023-02-28T16:58:47;2.03;;;1.40;;
36259;SDS011;22296;50.824;5.644;2023-02-28T17:01:16;1.40;;;1.30;;
36259;SDS011;22296;50.824;5.644;2023-02-28T17:03:48;2.15;;;1.38;;
36259;SDS011;22296;50.824;5.644;2023-02-28T17:06:16;1.70;;;1.30;;
36259;SDS011;22296;50.824;5.644;2023-02-28T17:08:46;1.73;;;1.20;;
36259;SDS011;22296;50.824;5.644;2023-02-28T17:11:12;1.88;;;1.40;;
36259;SDS011;22296;50.824;5.644;2023-02-28T17:13:39;1.45;;;1.20;;
36259;SDS011;22296;50.824;5.644;2023-02-28T17:16:08;2.45;;;1.33;;
36259;SDS011;22296;50.824;5.644;2023-02-28T17:18:44;1.30;;;1.20;;
36259;SDS011;22296;50.824;5.644;2023-02-28T17:21:15;2.42;;;1.10;;
36259;SDS011;22296;50.824;5.644;2023-02-28T17:23:43;2.35;;;1.20;;
36259;SDS011;22296;50.824;5.644;2023-02-28T17:26:13;2.42;;;1.30;;
36259;SDS011;22296;50.824;5.644;2023-02-28T17:28:43;1.38;;;1.10;;
36259;SDS011;22296;50.824;5.644;2023-02-28T17:31:10;1.40;;;1.20;;
36259;SDS011;22296;50.824;5.644;2023-02-28T17:33:37;2.28;;;1.10;;
36259;SDS011;22296;50.824;5.644;2023-02-28T17:36:04;1.50;;;1.17;;
36259;SDS011;22296;50.824;5.644;2023-02-28T17:38:31;1.30;;;1.10;;
36259;SDS011;22296;50.824;5.644;2023-02-28T17:40:58;1.20;;;1.10;;
36259;SDS011;22296;50.824;5.644;2023-02-28T17:43:27;2.47;;;0.90;;
36259;SDS011;22296;50.824;5.644;2023-02-28T17:45:54;1.75;;;1.10;;
36259;SDS011;22296;50.824;5.644;2023-02-28T17:48:22;1.40;;;1.05;;
36259;SDS011;22296;50.824;5.644;2023-02-28T17:50:49;2.03;;;1.25;;
36259;SDS011;22296;50.824;5.644;2023-02-28T17:53:16;1.05;;;0.90;;
36259;SDS011;22296;50.824;5.644;2023-02-28T17:55:42;1.98;;;1.30;;
36259;SDS011;22296;50.824;5.644;2023-02-28T17:58:10;2.22;;;1.20;;
36259;SDS011;22296;50.824;5.644;2023-02-28T18:00:38;1.73;;;1.27;;
36259;SDS011;22296;50.824;5.644;2023-02-28T18:03:05;2.08;;;1.20;;
36259;SDS011;22296;50.824;5.644;2023-02-28T18:05:32;2.15;;;1.30;;
36259;SDS011;22296;50.824;5.644;2023-02-28T18:07:59;3.35;;;1.30;;
36259;SDS011;22296;50.824;5.644;2023-02-28T18:10:26;2.80;;;1.10;;